Time;durP1;ratioP1;P1;durP2;ratioP2;P2;SDS_P1;SDS_P2;PMS_P1;PMS_P2;Temp;Humidity;BMP_temperature;BMP_pressure;BME280_temperature;BME280_humidity;BME280_pressure;Samples;Min_cycle;Max_cycle;Signal;HPM_P1;HPM_P2
2021/09/17 00:01:41;;;;;;;1.27;1.20;;;15.90;99.90;;;;;;6183688;23;20362;-87
2021/09/17 00:04:25;;;;;;;1.50;1.00;;;15.90;99.90;;;;;;6184827;23;20371;-90
2021/09/17 00:07:09;;;;;;;1.40;1.30;;;15.90;99.90;;;;;;6205557;23;20359;-84
2021/09/17 00:09:54;;;;;;;1.40;1.30;;;15.90;99.90;;;;;;6183675;23;20374;-85
2021/09/17 00:12:38;;;;;;;1.10;1.00;;;15.90;99.90;;;;;;6205314;23;20383;-87
2021/09/17 00:15:23;;;;;;;1.00;1.00;;;15.90;99.90;;;;;;6204148;23;20383;-86
2021/09/17 00:18:07;;;;;;;0.90;0.90;;;15.90;99.90;;;;;;6203617;23;20417;-87
2021/09/17 00:20:51;;;;;;;1.48;1.08;;;15.90;99.90;;;;;;6181192;23;21068;-86
2021/09/17 00:23:35;;;;;;;1.00;1.00;;;15.90;99.90;;;;;;6205441;23;20397;-89
2021/09/17 00:26:20;;;;;;;0.80;0.80;;;16.00;99.90;;;;;;6225060;23;20409;-85
2021/09/17 00:29:04;;;;;;;1.20;1.10;;;16.00;99.90;;;;;;6204617;23;20371;-85
2021/09/17 00:31:48;;;;;;;0.95;0.95;;;16.00;99.90;;;;;;6204585;23;20408;-88
2021/09/17 00:34:33;;;;;;;0.90;0.90;;;16.10;99.90;;;;;;6184046;23;20374;-86
2021/09/17 00:37:17;;;;;;;0.82;0.82;;;15.90;99.90;;;;;;6224988;23;20366;-85
2021/09/17 00:40:02;;;;;;;0.90;0.90;;;15.80;99.90;;;;;;6183380;23;20367;-87
2021/09/17 00:42:46;;;;;;;1.00;1.00;;;15.90;99.90;;;;;;6224744;23;20359;-88
2021/09/17 00:45:31;;;;;;;1.00;1.00;;;15.90;99.90;;;;;;6184181;23;20379;-86
2021/09/17 00:48:15;;;;;;;0.90;0.90;;;15.80;99.90;;;;;;6205844;23;20359;-86
2021/09/17 00:50:59;;;;;;;0.70;0.70;;;15.80;99.90;;;;;;6226414;23;20416;-85
2021/09/17 00:53:44;;;;;;;1.00;0.80;;;15.80;99.90;;;;;;6184620;23;20383;-86
2021/09/17 00:56:28;;;;;;;1.20;1.10;;;15.80;99.90;;;;;;6204178;23;20407;-90
2021/09/17 00:59:13;;;;;;;0.98;0.95;;;15.80;99.90;;;;;;6204424;23;20410;-88
2021/09/17 01:01:57;;;;;;;0.80;0.80;;;15.80;99.90;;;;;;6182320;23;20387;-88
2021/09/17 01:04:41;;;;;;;1.00;1.00;;;15.80;99.90;;;;;;6180496;23;20358;-88
2021/09/17 01:07:25;;;;;;;0.80;0.80;;;15.80;99.90;;;;;;6204527;23;20374;-88
2021/09/17 01:10:10;;;;;;;0.80;0.80;;;15.80;99.90;;;;;;6206191;23;20402;-90
2021/09/17 01:12:54;;;;;;;0.70;0.70;;;15.80;99.90;;;;;;6205261;23;20937;-88
2021/09/17 01:15:38;;;;;;;1.10;1.00;;;15.80;99.90;;;;;;6205047;23;20437;-89
2021/09/17 01:18:23;;;;;;;0.68;0.68;;;15.80;99.90;;;;;;6181764;23;20370;-86
2021/09/17 01:21:07;;;;;;;1.20;1.10;;;15.80;99.90;;;;;;6179974;23;20439;-89
2021/09/17 01:23:51;;;;;;;1.17;1.00;;;15.80;99.90;;;;;;6181354;23;20367;-86
2021/09/17 01:26:37;;;;;;;0.95;0.90;;;15.80;99.90;;;;;;6181858;23;20682;-84
2021/09/17 01:29:22;;;;;;;1.00;0.93;;;15.80;99.90;;;;;;6204475;23;20387;-83
2021/09/17 01:32:06;;;;;;;1.08;0.93;;;15.80;99.90;;;;;;6173453;23;20406;-91
2021/09/17 01:34:50;;;;;;;0.90;0.90;;;15.80;99.90;;;;;;6183271;23;20367;-86
2021/09/17 01:37:35;;;;;;;0.82;0.82;;;15.80;99.90;;;;;;6183566;23;20404;-86
2021/09/17 01:40:19;;;;;;;0.70;0.70;;;15.80;99.90;;;;;;6138566;23;20829;-86
2021/09/17 01:43:03;;;;;;;0.70;0.70;;;15.70;99.90;;;;;;6141149;23;20363;-87
2021/09/17 01:45:48;;;;;;;0.85;0.85;;;15.70;99.90;;;;;;6140337;23;20366;-84
2021/09/17 01:48:32;;;;;;;1.10;1.00;;;15.70;99.90;;;;;;6161350;23;20475;-84
2021/09/17 01:51:16;;;;;;;0.80;0.80;;;15.70;99.90;;;;;;6159900;23;20370;-85
2021/09/17 01:54:04;;;;;;;1.50;1.10;;;15.70;99.90;;;;;;6161249;23;20362;-88
2021/09/17 01:56:48;;;;;;;0.90;0.90;;;15.70;99.90;;;;;;6161246;23;20382;-83
2021/09/17 01:59:33;;;;;;;1.00;1.00;;;15.80;99.90;;;;;;6160052;23;20367;-84
2021/09/17 02:02:17;;;;;;;1.00;1.00;;;15.70;99.90;;;;;;6140153;23;21449;-86
2021/09/17 02:05:01;;;;;;;0.80;0.80;;;15.80;99.90;;;;;;6161461;23;20366;-86
2021/09/17 02:07:46;;;;;;;0.90;0.90;;;15.70;99.90;;;;;;6139924;23;20654;-83
2021/09/17 02:10:30;;;;;;;1.07;1.03;;;15.70;99.90;;;;;;6161383;23;20552;-86
2021/09/17 02:13:20;;;;;;;0.95;0.90;;;15.70;99.90;;;;;;6161486;23;20428;-89
2021/09/17 02:16:04;;;;;;;0.85;0.85;;;15.70;99.90;;;;;;6141819;23;20382;-86
2021/09/17 02:18:48;;;;;;;1.15;1.08;;;15.70;99.90;;;;;;6160853;23;20417;-84
2021/09/17 02:21:33;;;;;;;1.85;0.90;;;15.70;99.90;;;;;;6160860;23;20368;-89
2021/09/17 02:24:18;;;;;;;1.00;1.00;;;15.70;99.90;;;;;;6163901;23;20736;-89
2021/09/17 02:27:02;;;;;;;0.80;0.80;;;15.60;99.90;;;;;;6141704;23;20383;-86
2021/09/17 02:29:46;;;;;;;1.42;1.10;;;15.70;99.90;;;;;;6140880;23;20386;-84
2021/09/17 02:32:31;;;;;;;1.30;0.85;;;15.70;99.90;;;;;;6161208;23;20422;-86
2021/09/17 02:35:15;;;;;;;1.02;0.95;;;15.70;99.90;;;;;;6182622;23;20383;-86
2021/09/17 02:37:59;;;;;;;1.30;1.20;;;15.70;99.90;;;;;;6141189;23;20418;-83
2021/09/17 02:40:44;;;;;;;1.05;1.05;;;15.70;99.90;;;;;;6136413;23;20394;-87
2021/09/17 02:43:28;;;;;;;2.13;1.17;;;15.60;99.90;;;;;;6182479;23;20398;-85
2021/09/17 02:46:12;;;;;;;1.20;1.10;;;15.60;99.90;;;;;;6141488;23;20382;-83
2021/09/17 02:48:57;;;;;;;1.17;1.10;;;15.70;99.90;;;;;;6162108;23;20403;-86
2021/09/17 02:51:41;;;;;;;1.00;1.00;;;15.60;99.90;;;;;;6182015;23;20363;-87
2021/09/17 02:54:25;;;;;;;1.40;1.30;;;15.70;99.90;;;;;;6182779;23;20440;-88
2021/09/17 02:57:10;;;;;;;1.03;1.03;;;15.70;99.90;;;;;;6182108;23;20383;-86
2021/09/17 02:59:55;;;;;;;1.15;1.05;;;15.70;99.90;;;;;;6182522;23;20370;-85
2021/09/17 03:02:39;;;;;;;1.35;1.25;;;15.70;99.90;;;;;;6161678;23;20367;-83
2021/09/17 03:05:24;;;;;;;1.48;1.38;;;15.60;99.90;;;;;;6161317;23;20428;-85
2021/09/17 03:08:08;;;;;;;1.00;1.00;;;15.50;99.90;;;;;;6163308;23;20370;-87
2021/09/17 03:10:57;;;;;;;0.95;0.95;;;15.50;99.90;;;;;;6141031;23;21389;-87
2021/09/17 03:13:41;;;;;;;1.75;1.20;;;15.60;99.90;;;;;;6185348;23;20391;-86
2021/09/17 03:16:25;;;;;;;1.05;0.95;;;15.60;99.90;;;;;;6181735;23;20463;-87
2021/09/17 03:19:10;;;;;;;0.82;0.82;;;15.60;99.90;;;;;;6161190;23;20370;-85
2021/09/17 03:21:56;;;;;;;1.92;1.10;;;15.60;99.90;;;;;;6181479;23;20366;-83
2021/09/17 03:24:41;;;;;;;1.20;1.10;;;15.60;99.90;;;;;;6139860;23;20367;-86
2021/09/17 03:27:25;;;;;;;0.77;0.77;;;15.60;99.90;;;;;;6160723;23;20383;-85
2021/09/17 03:30:10;;;;;;;1.05;1.05;;;15.60;99.90;;;;;;6141629;23;20379;-87
2021/09/17 03:32:55;;;;;;;2.30;1.10;;;15.60;99.90;;;;;;6162560;23;20366;-87
2021/09/17 03:35:39;;;;;;;2.20;1.00;;;15.60;99.90;;;;;;6178736;23;20417;-88
2021/09/17 03:38:23;;;;;;;1.00;1.00;;;15.60;99.90;;;;;;6161897;23;20406;-87
2021/09/17 03:41:08;;;;;;;1.27;1.17;;;15.60;99.90;;;;;;6183831;23;20370;-85
2021/09/17 03:43:52;;;;;;;1.37;1.13;;;15.60;99.90;;;;;;6141974;23;20410;-86
2021/09/17 03:46:36;;;;;;;1.00;1.00;;;15.60;99.90;;;;;;6140774;23;20346;-88
2021/09/17 03:49:21;;;;;;;1.00;1.00;;;15.70;99.90;;;;;;6181901;23;20417;-90
2021/09/17 03:52:05;;;;;;;1.00;1.00;;;15.60;99.90;;;;;;6182533;23;20366;-84
2021/09/17 03:54:50;;;;;;;1.25;1.10;;;15.60;99.90;;;;;;6160835;23;20390;-88
2021/09/17 03:57:34;;;;;;;1.13;1.13;;;15.60;99.90;;;;;;6183694;23;20735;-86
2021/09/17 04:00:18;;;;;;;1.10;1.00;;;15.60;99.90;;;;;;6199475;23;20390;-87
2021/09/17 04:03:03;;;;;;;1.30;1.20;;;15.60;99.90;;;;;;6179384;23;20435;-83
2021/09/17 04:05:48;;;;;;;1.20;1.15;;;15.60;99.90;;;;;;6154352;23;20391;-85
2021/09/17 04:08:32;;;;;;;2.22;1.35;;;15.50;99.90;;;;;;6178655;23;20370;-81
2021/09/17 04:11:17;;;;;;;1.20;1.10;;;15.50;99.90;;;;;;6199278;23;20366;-82
2021/09/17 04:14:01;;;;;;;1.35;1.25;;;15.50;99.90;;;;;;6139448;23;20483;-81
2021/09/17 04:16:46;;;;;;;1.50;1.40;;;15.50;99.90;;;;;;6200913;23;20863;-82
2021/09/17 04:19:30;;;;;;;1.25;1.15;;;15.50;99.90;;;;;;6157441;23;20371;-86
2021/09/17 04:22:15;;;;;;;1.00;1.00;;;15.50;99.90;;;;;;6156748;23;20367;-82
2021/09/17 04:24:59;;;;;;;1.10;1.10;;;15.50;99.90;;;;;;6160436;23;20396;-88
2021/09/17 04:27:46;;;;;;;1.27;1.17;;;15.50;99.90;;;;;;6160149;23;20874;-85
2021/09/17 04:30:30;;;;;;;1.65;1.13;;;15.50;99.90;;;;;;6159449;23;20432;-83
2021/09/17 04:33:16;;;;;;;1.35;1.27;;;15.50;99.90;;;;;;6160926;23;20429;-82
2021/09/17 04:36:00;;;;;;;1.48;1.38;;;15.50;99.90;;;;;;6203983;23;20426;-83
2021/09/17 04:38:45;;;;;;;2.85;1.33;;;15.50;99.90;;;;;;6190622;23;20908;-82
2021/09/17 04:41:29;;;;;;;0.97;0.97;;;15.50;99.90;;;;;;6199613;23;20422;-87
2021/09/17 04:44:14;;;;;;;1.42;1.33;;;15.50;99.90;;;;;;6181516;23;20390;-85
2021/09/17 04:46:59;;;;;;;0.85;0.85;;;15.50;99.90;;;;;;6182199;23;20354;-86
2021/09/17 04:49:43;;;;;;;1.30;1.20;;;15.50;99.90;;;;;;6203018;23;20708;-84
2021/09/17 04:52:28;;;;;;;1.25;1.20;;;15.50;99.90;;;;;;6204909;23;20394;-87
2021/09/17 04:55:12;;;;;;;1.33;1.15;;;15.50;99.90;;;;;;6182193;23;20414;-86
2021/09/17 04:58:00;;;;;;;1.10;1.00;;;15.60;99.90;;;;;;6203194;23;20374;-86
2021/09/17 05:00:45;;;;;;;0.98;0.90;;;15.50;99.90;;;;;;6203520;23;20902;-86
2021/09/17 05:03:29;;;;;;;1.50;1.40;;;15.60;99.90;;;;;;6224804;23;20414;-86
2021/09/17 05:06:13;;;;;;;1.40;1.30;;;15.50;99.90;;;;;;6204868;23;20956;-83
2021/09/17 05:08:58;;;;;;;1.30;1.20;;;15.50;99.90;;;;;;6205151;23;20378;-84
2021/09/17 05:11:43;;;;;;;1.00;1.00;;;15.50;99.90;;;;;;6182694;23;20363;-84
2021/09/17 05:14:27;;;;;;;1.00;1.00;;;15.40;99.90;;;;;;6203733;23;20855;-83
2021/09/17 05:17:11;;;;;;;1.20;1.20;;;15.40;99.90;;;;;;6181662;23;20764;-86
2021/09/17 05:19:56;;;;;;;0.90;0.90;;;15.40;99.90;;;;;;6179768;23;20394;-88
2021/09/17 05:22:41;;;;;;;1.25;1.15;;;15.50;99.90;;;;;;6182342;23;20455;-83
2021/09/17 05:25:25;;;;;;;0.80;0.80;;;15.50;99.90;;;;;;6204637;23;20469;-88
2021/09/17 05:28:09;;;;;;;0.77;0.77;;;15.40;99.90;;;;;;6205068;23;20390;-86
2021/09/17 05:30:54;;;;;;;0.80;0.80;;;15.40;99.90;;;;;;6204888;23;20375;-87
2021/09/17 05:33:38;;;;;;;1.10;1.00;;;15.50;99.90;;;;;;6205973;23;20398;-87
2021/09/17 05:36:23;;;;;;;1.23;1.13;;;15.40;99.90;;;;;;6225818;23;20399;-84
2021/09/17 05:39:07;;;;;;;0.88;0.88;;;15.40;99.90;;;;;;6203873;23;20403;-85
2021/09/17 05:41:51;;;;;;;1.05;1.02;;;15.50;99.90;;;;;;6204627;23;20849;-87
2021/09/17 05:44:36;;;;;;;0.82;0.82;;;15.40;99.90;;;;;;6176778;23;20412;-82
2021/09/17 05:47:20;;;;;;;1.00;1.00;;;15.50;99.90;;;;;;6177017;23;20363;-83
2021/09/17 05:50:05;;;;;;;0.85;0.85;;;15.50;99.90;;;;;;6176150;23;20398;-82
2021/09/17 05:52:49;;;;;;;0.70;0.70;;;15.60;99.90;;;;;;6177074;23;20816;-83
2021/09/17 05:55:34;;;;;;;0.73;0.73;;;15.60;99.90;;;;;;6176416;23;20367;-81
2021/09/17 05:58:18;;;;;;;1.00;1.00;;;15.70;99.90;;;;;;6182012;23;20398;-83
2021/09/17 06:01:02;;;;;;;0.73;0.73;;;15.70;99.90;;;;;;6181891;23;20388;-86
2021/09/17 06:03:47;;;;;;;1.05;0.98;;;15.70;99.90;;;;;;6181348;23;20383;-86
2021/09/17 06:06:31;;;;;;;0.93;0.93;;;15.70;99.90;;;;;;6202488;23;20374;-85
2021/09/17 06:09:16;;;;;;;1.17;1.10;;;15.70;99.90;;;;;;6180107;23;20436;-84
2021/09/17 06:12:01;;;;;;;1.10;1.00;;;15.60;99.90;;;;;;6180265;23;20366;-87
2021/09/17 06:14:45;;;;;;;0.85;0.85;;;15.70;99.90;;;;;;6179234;23;20445;-86
2021/09/17 06:17:29;;;;;;;1.00;1.00;;;15.70;99.90;;;;;;6222529;23;20399;-82
2021/09/17 06:20:14;;;;;;;2.00;1.13;;;15.70;99.90;;;;;;6198977;23;20354;-84
2021/09/17 06:22:58;;;;;;;0.98;0.90;;;15.70;99.90;;;;;;6177034;23;20363;-85
2021/09/17 06:25:43;;;;;;;1.30;1.02;;;15.70;99.90;;;;;;6178031;23;20358;-83
2021/09/17 06:28:27;;;;;;;1.52;0.82;;;15.80;99.90;;;;;;6199767;23;20692;-83
2021/09/17 06:31:11;;;;;;;1.10;0.90;;;15.80;99.90;;;;;;6179832;23;20387;-88
2021/09/17 06:33:56;;;;;;;1.13;1.08;;;15.90;99.90;;;;;;6180177;23;20383;-86
2021/09/17 06:36:40;;;;;;;0.80;0.80;;;15.90;99.90;;;;;;6201764;23;20602;-86
2021/09/17 06:39:24;;;;;;;0.90;0.90;;;16.00;99.90;;;;;;6180166;23;20374;-85
2021/09/17 06:42:08;;;;;;;1.10;1.10;;;16.00;99.90;;;;;;6180211;23;20664;-82
2021/09/17 06:44:53;;;;;;;0.88;0.88;;;16.00;99.90;;;;;;6180035;23;20367;-83
2021/09/17 06:47:51;;;;;;;0.80;0.80;;;16.10;99.90;;;;;;6200871;23;20373;-84
2021/09/17 06:50:35;;;;;;;0.90;0.90;;;16.20;99.90;;;;;;6200510;23;20362;-83
2021/09/17 06:53:20;;;;;;;0.70;0.70;;;16.30;99.90;;;;;;6180410;23;20363;-84
2021/09/17 06:56:04;;;;;;;2.20;0.90;;;16.50;99.90;;;;;;6179925;23;20378;-85
2021/09/17 06:58:49;;;;;;;0.70;0.70;;;16.60;99.90;;;;;;6181833;23;20366;-82
2021/09/17 07:01:33;;;;;;;0.80;0.80;;;16.60;99.90;;;;;;6200161;23;20380;-83
2021/09/17 07:04:18;;;;;;;0.80;0.80;;;16.50;99.90;;;;;;6180648;23;20394;-88
2021/09/17 07:07:02;;;;;;;1.35;1.02;;;16.50;99.90;;;;;;6180247;23;20386;-85
2021/09/17 07:09:47;;;;;;;1.60;1.00;;;16.30;99.90;;;;;;6222272;23;20443;-83
2021/09/17 07:12:31;;;;;;;0.80;0.77;;;16.20;99.90;;;;;;6183206;23;20429;-83
2021/09/17 07:15:17;;;;;;;0.82;0.77;;;16.20;99.90;;;;;;6180064;23;20382;-85
2021/09/17 07:18:02;;;;;;;1.48;0.90;;;16.10;99.90;;;;;;6180426;23;20447;-83
2021/09/17 07:20:47;;;;;;;1.70;0.90;;;16.10;99.90;;;;;;6200131;23;20385;-88
2021/09/17 07:23:32;;;;;;;0.70;0.70;;;16.20;99.90;;;;;;6201252;23;20414;-83
2021/09/17 07:26:17;;;;;;;0.85;0.85;;;16.20;99.90;;;;;;6197080;23;20416;-85
2021/09/17 07:29:01;;;;;;;0.70;0.70;;;16.10;99.90;;;;;;6176035;23;20367;-83
2021/09/17 07:31:46;;;;;;;0.60;0.60;;;16.00;99.90;;;;;;6169044;23;20354;-81
2021/09/17 07:34:30;;;;;;;0.60;0.60;;;15.90;99.90;;;;;;6168963;23;20733;-82
2021/09/17 07:37:15;;;;;;;0.60;0.60;;;15.80;99.90;;;;;;6209649;23;20402;-83
2021/09/17 07:39:59;;;;;;;0.63;0.55;;;15.70;99.90;;;;;;6187910;23;20438;-82
2021/09/17 07:42:44;;;;;;;0.60;0.60;;;15.70;99.90;;;;;;6190637;23;20745;-84
2021/09/17 07:45:29;;;;;;;1.17;0.80;;;15.70;99.90;;;;;;6213551;23;20906;-81
2021/09/17 07:48:14;;;;;;;0.70;0.70;;;15.80;99.90;;;;;;6174101;23;20619;-83
2021/09/17 07:50:58;;;;;;;0.80;0.80;;;15.80;99.90;;;;;;6193522;23;20433;-82
2021/09/17 07:53:42;;;;;;;0.65;0.65;;;15.90;99.90;;;;;;6176085;23;20390;-83
2021/09/17 07:56:27;;;;;;;0.60;0.60;;;16.10;99.90;;;;;;6197041;23;20403;-86
2021/09/17 07:59:11;;;;;;;0.70;0.70;;;16.30;99.90;;;;;;6197645;23;20893;-86
2021/09/17 08:01:55;;;;;;;0.70;0.70;;;16.30;99.90;;;;;;6176048;23;20395;-84
2021/09/17 08:04:40;;;;;;;0.77;0.77;;;16.20;99.90;;;;;;6174966;23;21118;-83
2021/09/17 08:07:24;;;;;;;0.60;0.60;;;16.30;99.90;;;;;;6218120;23;20398;-86
2021/09/17 08:10:09;;;;;;;1.40;0.90;;;16.40;99.90;;;;;;6175876;23;21230;-85
2021/09/17 08:12:53;;;;;;;0.70;0.70;;;16.50;99.90;;;;;;6176850;23;20363;-84
2021/09/17 08:15:37;;;;;;;0.80;0.80;;;16.50;99.90;;;;;;6199033;23;20379;-83
2021/09/17 08:18:22;;;;;;;0.70;0.70;;;16.60;99.90;;;;;;6177315;23;20406;-84
2021/09/17 08:21:06;;;;;;;0.65;0.63;;;16.40;99.90;;;;;;6179223;23;20418;-85
2021/09/17 08:23:51;;;;;;;0.70;0.70;;;16.50;99.90;;;;;;6183937;23;20378;-86
2021/09/17 08:26:35;;;;;;;1.30;0.90;;;16.60;99.90;;;;;;6182425;23;20832;-87
2021/09/17 08:29:20;;;;;;;0.80;0.80;;;16.70;99.90;;;;;;6179052;23;20391;-84
2021/09/17 08:32:05;;;;;;;0.80;0.80;;;16.70;99.90;;;;;;6182156;23;20366;-89
2021/09/17 08:34:50;;;;;;;0.80;0.80;;;16.70;99.90;;;;;;6182255;23;20402;-85
2021/09/17 08:37:34;;;;;;;0.70;0.70;;;16.60;99.90;;;;;;6179038;23;20386;-83
2021/09/17 08:40:20;;;;;;;1.70;0.90;;;16.60;99.90;;;;;;6158948;23;20420;-84
2021/09/17 08:43:04;;;;;;;1.08;0.90;;;16.60;99.90;;;;;;6158136;23;20362;-85
2021/09/17 08:45:49;;;;;;;0.80;0.80;;;16.60;99.90;;;;;;6137087;23;20367;-81
2021/09/17 08:48:36;;;;;;;0.60;0.60;;;16.50;99.90;;;;;;6161531;23;20370;-84
2021/09/17 08:51:21;;;;;;;0.70;0.70;;;16.50;99.90;;;;;;6179223;23;20399;-83
2021/09/17 08:54:05;;;;;;;0.75;0.75;;;16.40;99.90;;;;;;6138785;23;20378;-84
2021/09/17 08:56:50;;;;;;;0.70;0.70;;;16.60;99.90;;;;;;6137802;23;20422;-84
2021/09/17 08:59:34;;;;;;;0.80;0.80;;;16.70;99.90;;;;;;6138723;23;20374;-86
2021/09/17 09:02:20;;;;;;;0.70;0.70;;;16.70;99.90;;;;;;6159689;23;20386;-84
2021/09/17 09:05:06;;;;;;;0.80;0.80;;;16.80;99.90;;;;;;6159854;23;20371;-83
2021/09/17 09:07:50;;;;;;;0.80;0.80;;;16.90;99.90;;;;;;6161265;23;20370;-84
2021/09/17 09:10:34;;;;;;;0.73;0.73;;;16.90;99.90;;;;;;6139583;23;20366;-86
2021/09/17 09:13:19;;;;;;;0.70;0.70;;;16.90;99.90;;;;;;6139698;23;20418;-83
2021/09/17 09:16:03;;;;;;;0.90;0.90;;;17.20;99.90;;;;;;6139031;23;20438;-87
2021/09/17 09:18:48;;;;;;;0.50;0.50;;;17.30;99.90;;;;;;6138768;23;20619;-85
2021/09/17 09:21:32;;;;;;;0.82;0.82;;;17.50;99.90;;;;;;6180045;23;20379;-85
2021/09/17 09:24:21;;;;;;;0.80;0.80;;;17.50;99.90;;;;;;6140967;23;20438;-89
2021/09/17 09:27:08;;;;;;;0.80;0.80;;;17.60;99.90;;;;;;6182168;23;20390;-88
2021/09/17 09:29:52;;;;;;;1.00;0.80;;;17.70;99.90;;;;;;6138578;23;20435;-85
2021/09/17 09:32:37;;;;;;;0.70;0.70;;;17.70;99.90;;;;;;6140200;23;20351;-85
2021/09/17 09:35:21;;;;;;;0.97;0.97;;;17.80;99.90;;;;;;6138410;23;20591;-83
2021/09/17 09:38:06;;;;;;;0.80;0.80;;;17.70;99.90;;;;;;6140928;23;20739;-86
2021/09/17 09:40:57;;;;;;;0.63;0.63;;;17.60;99.90;;;;;;6182248;23;20371;-87
2021/09/17 09:43:49;;;;;;;0.80;0.70;;;17.60;99.90;;;;;;6203850;23;20362;-83
2021/09/17 09:46:38;;;;;;;0.60;0.60;;;17.80;99.90;;;;;;6202026;23;20724;-86
2021/09/17 09:49:26;;;;;;;0.80;0.80;;;18.00;99.90;;;;;;6181108;23;20381;-84
2021/09/17 09:52:10;;;;;;;0.57;0.57;;;18.20;99.90;;;;;;6182128;23;20366;-87
2021/09/17 09:54:55;;;;;;;0.60;0.60;;;18.40;99.90;;;;;;6180175;23;20378;-88
2021/09/17 09:57:41;;;;;;;0.60;0.60;;;18.40;99.90;;;;;;6180211;23;20391;-86
2021/09/17 10:00:27;;;;;;;0.60;0.60;;;18.70;99.90;;;;;;6200116;23;20370;-85
2021/09/17 10:03:11;;;;;;;0.75;0.75;;;18.90;99.90;;;;;;6180984;23;20490;-85
2021/09/17 10:05:55;;;;;;;0.57;0.57;;;18.80;99.90;;;;;;6178996;23;20395;-86
2021/09/17 10:08:43;;;;;;;0.60;0.60;;;18.90;99.90;;;;;;6179791;23;20378;-89
2021/09/17 10:11:27;;;;;;;0.57;0.57;;;18.80;99.90;;;;;;6171846;23;20453;-89
2021/09/17 10:14:12;;;;;;;0.57;0.57;;;18.90;99.90;;;;;;6201797;23;20390;-88
2021/09/17 10:16:58;;;;;;;0.63;0.63;;;18.90;99.90;;;;;;6178858;23;20378;-89
2021/09/17 10:19:48;;;;;;;0.60;0.52;;;19.10;99.90;;;;;;6201557;23;20387;-88
2021/09/17 10:22:36;;;;;;;0.60;0.60;;;19.20;99.90;;;;;;6180836;23;20390;-87
2021/09/17 10:25:26;;;;;;;0.60;0.60;;;18.70;99.90;;;;;;6200917;23;20390;-85
2021/09/17 10:28:11;;;;;;;0.60;0.60;;;18.80;99.90;;;;;;6180657;23;20688;-85
2021/09/17 10:31:11;;;;;;;0.50;0.50;;;19.00;99.90;;;;;;6180252;23;20416;-87
2021/09/17 10:34:00;;;;;;;0.40;0.40;;;18.80;99.90;;;;;;6200335;23;20366;-84
2021/09/17 10:36:45;;;;;;;0.50;0.50;;;19.00;99.90;;;;;;6179373;23;20374;-87
2021/09/17 10:39:30;;;;;;;0.50;0.50;;;19.20;99.90;;;;;;6177698;23;20375;-85
2021/09/17 10:42:17;;;;;;;1.60;0.70;;;19.30;99.90;;;;;;6179024;23;20402;-87
2021/09/17 10:45:01;;;;;;;0.60;0.60;;;19.30;99.90;;;;;;6179851;23;20395;-87
2021/09/17 10:47:46;;;;;;;0.60;0.60;;;19.40;99.90;;;;;;6201797;23;20406;-87
2021/09/17 10:51:00;;;;;;;0.60;0.60;;;19.60;99.90;;;;;;6225216;23;20373;-92
2021/09/17 10:53:55;;;;;;;0.60;0.60;;;19.80;99.90;;;;;;6207273;23;20379;-89
2021/09/17 10:56:48;;;;;;;0.55;0.55;;;19.50;99.90;;;;;;6181235;23;20753;-88
2021/09/17 10:59:39;;;;;;;0.80;0.80;;;19.40;99.90;;;;;;6200379;23;20390;-87
2021/09/17 11:02:39;;;;;;;0.70;0.70;;;19.30;99.90;;;;;;6181052;23;20439;-88
2021/09/17 11:05:24;;;;;;;0.80;0.80;;;19.30;99.90;;;;;;6178993;23;20433;-87
2021/09/17 11:08:41;;;;;;;0.50;0.50;;;19.30;99.90;;;;;;6180305;23;20907;-86
2021/09/17 11:11:29;;;;;;;0.50;0.50;;;19.30;99.90;;;;;;6180749;23;20393;-84
2021/09/17 11:14:18;;;;;;;0.50;0.50;;;19.20;99.90;;;;;;6201379;23;20383;-88
2021/09/17 11:17:02;;;;;;;0.52;0.52;;;19.10;99.90;;;;;;6202316;23;20411;-89
2021/09/17 11:19:57;;;;;;;0.70;0.70;;;19.10;99.90;;;;;;6178701;23;20438;-85
2021/09/17 11:22:50;;;;;;;0.70;0.70;;;18.90;99.90;;;;;;6177316;23;20787;-85
2021/09/17 11:25:38;;;;;;;0.80;0.80;;;18.80;99.90;;;;;;6201437;23;20376;-90
2021/09/17 11:28:32;;;;;;;0.55;0.55;;;18.50;99.90;;;;;;6180565;23;20419;-86
2021/09/17 11:31:17;;;;;;;0.90;0.90;;;18.50;99.90;;;;;;6184101;23;20822;-86
2021/09/17 11:34:05;;;;;;;0.70;0.70;;;18.60;99.90;;;;;;6184703;23;20375;-92
2021/09/17 11:36:53;;;;;;;0.80;0.80;;;18.50;99.90;;;;;;6184987;23;20418;-89
2021/09/17 11:39:38;;;;;;;0.60;0.60;;;18.50;99.90;;;;;;6184885;23;20374;-86
2021/09/17 11:42:22;;;;;;;0.65;0.65;;;18.40;99.90;;;;;;6205743;23;20449;-87
2021/09/17 11:45:33;;;;;;;0.50;0.50;;;18.40;99.90;;;;;;6205702;23;20366;-93
2021/09/17 11:48:23;;;;;;;0.75;0.75;;;18.40;99.90;;;;;;6205682;23;21436;-91
2021/09/17 11:51:12;;;;;;;0.80;0.65;;;18.40;99.90;;;;;;6185666;23;20465;-91
2021/09/17 11:53:57;;;;;;;0.70;0.70;;;18.40;99.90;;;;;;6186162;23;20362;-90
2021/09/17 11:57:00;;;;;;;0.70;0.70;;;18.20;99.90;;;;;;6185028;23;20398;-90
2021/09/17 11:59:45;;;;;;;0.50;0.50;;;18.20;99.90;;;;;;6205288;23;20371;-93
2021/09/17 12:02:29;;;;;;;0.52;0.52;;;18.30;99.90;;;;;;6204613;23;20383;-87
2021/09/17 12:05:22;;;;;;;0.70;0.70;;;18.00;99.90;;;;;;6204798;23;20366;-87
2021/09/17 12:08:06;;;;;;;0.60;0.60;;;18.10;99.90;;;;;;6179316;23;20394;-90
2021/09/17 12:10:58;;;;;;;0.50;0.50;;;18.10;99.90;;;;;;6183813;23;20407;-87
2021/09/17 12:13:43;;;;;;;0.77;0.63;;;18.10;99.90;;;;;;6185952;23;20439;-88
2021/09/17 12:16:28;;;;;;;0.60;0.60;;;18.20;99.90;;;;;;6184811;23;20403;-88
2021/09/17 12:19:12;;;;;;;0.50;0.50;;;18.30;99.90;;;;;;6184056;23;20375;-89
2021/09/17 12:22:00;;;;;;;0.90;0.70;;;18.50;99.90;;;;;;6184061;23;20376;-88
2021/09/17 12:24:46;;;;;;;0.50;0.50;;;18.60;99.90;;;;;;6183340;23;21803;-88
2021/09/17 12:27:30;;;;;;;0.50;0.50;;;18.40;99.90;;;;;;6185935;23;20416;-90
2021/09/17 12:30:19;;;;;;;0.50;0.50;;;18.90;99.90;;;;;;6183633;23;20390;-92
2021/09/17 12:33:22;;;;;;;0.40;0.40;;;19.50;99.90;;;;;;6204346;23;20363;-91
2021/09/17 12:36:13;;;;;;;0.60;0.60;;;19.30;99.90;;;;;;6161974;23;20437;-91
2021/09/17 12:39:01;;;;;;;1.40;0.60;;;19.20;99.90;;;;;;6182220;23;20370;-90
2021/09/17 12:41:48;;;;;;;0.50;0.50;;;19.20;99.90;;;;;;6183165;23;20414;-84
2021/09/17 12:44:43;;;;;;;0.50;0.50;;;19.00;99.90;;;;;;6183133;23;20895;-92
2021/09/17 12:47:28;;;;;;;0.68;0.68;;;18.90;99.90;;;;;;6185118;23;20412;-88
2021/09/17 12:50:13;;;;;;;0.50;0.50;;;19.00;99.90;;;;;;6183094;23;20378;-88
2021/09/17 12:52:57;;;;;;;0.70;0.70;;;18.90;99.90;;;;;;6203880;23;20769;-90
2021/09/17 12:55:43;;;;;;;1.10;0.70;;;18.80;99.90;;;;;;6184076;23;20422;-87
2021/09/17 12:58:30;;;;;;;0.50;0.50;;;18.90;99.90;;;;;;6184879;23;20514;-90
2021/09/17 13:01:15;;;;;;;0.60;0.60;;;19.20;99.90;;;;;;6183548;23;20382;-90
2021/09/17 13:03:59;;;;;;;0.60;0.60;;;19.80;99.90;;;;;;6204548;23;20638;-90
2021/09/17 13:06:44;;;;;;;0.50;0.50;;;20.80;99.90;;;;;;6173690;23;20389;-92
2021/09/17 13:09:29;;;;;;;0.40;0.40;;;21.00;99.90;;;;;;6204790;23;20418;-89
2021/09/17 13:12:13;;;;;;;0.47;0.47;;;20.80;99.90;;;;;;6182359;23;20450;-91
2021/09/17 13:14:58;;;;;;;0.50;0.50;;;20.60;99.90;;;;;;6204436;23;20386;-90
2021/09/17 13:17:42;;;;;;;0.43;0.43;;;20.30;99.90;;;;;;6204718;23;20386;-91
2021/09/17 13:20:27;;;;;;;0.82;0.50;;;20.40;99.90;;;;;;6184548;23;20994;-90
2021/09/17 13:23:11;;;;;;;0.50;0.50;;;20.60;99.90;;;;;;6184000;23;20370;-90
2021/09/17 13:25:55;;;;;;;0.43;0.43;;;20.60;99.90;;;;;;6202959;23;20425;-90
2021/09/17 13:28:40;;;;;;;0.80;0.50;;;20.50;99.90;;;;;;6184226;23;20443;-89
2021/09/17 13:31:24;;;;;;;0.43;0.43;;;20.30;99.90;;;;;;6203787;23;20371;-92
2021/09/17 13:34:08;;;;;;;0.40;0.40;;;20.50;99.90;;;;;;6182783;23;20390;-92
2021/09/17 13:36:53;;;;;;;0.57;0.57;;;20.50;99.90;;;;;;6183883;23;20383;-90
2021/09/17 13:39:37;;;;;;;0.50;0.50;;;20.70;99.90;;;;;;6182417;23;20427;-87
2021/09/17 13:42:22;;;;;;;0.38;0.38;;;21.40;99.90;;;;;;6182978;23;20379;-91
2021/09/17 13:45:07;;;;;;;0.40;0.40;;;21.10;99.90;;;;;;6188621;23;20427;-92
2021/09/17 13:47:52;;;;;;;0.45;0.45;;;21.30;99.90;;;;;;6207334;23;20423;-91
2021/09/17 13:50:36;;;;;;;0.60;0.60;;;21.80;99.90;;;;;;6192438;23;20394;-94
2021/09/17 13:53:22;;;;;;;1.10;1.00;;;22.10;99.90;;;;;;6189333;23;20362;-92
2021/09/17 13:56:06;;;;;;;0.50;0.50;;;22.00;99.90;;;;;;6189114;23;22988;-91
2021/09/17 13:58:51;;;;;;;0.50;0.50;;;21.80;99.90;;;;;;6189361;23;20394;-91
2021/09/17 14:01:35;;;;;;;0.50;0.50;;;21.90;99.90;;;;;;6186394;23;20363;-93
2021/09/17 14:04:19;;;;;;;0.40;0.40;;;21.50;99.90;;;;;;6186036;23;20394;-91
2021/09/17 14:07:04;;;;;;;0.50;0.40;;;21.80;99.90;;;;;;6213202;23;20355;-92
2021/09/17 14:09:51;;;;;;;0.40;0.40;;;21.80;99.90;;;;;;6191265;23;25790;-91
2021/09/17 14:12:36;;;;;;;0.63;0.50;;;21.40;99.90;;;;;;6188246;23;20374;-91
2021/09/17 14:15:20;;;;;;;0.52;0.52;;;21.30;99.90;;;;;;6206973;23;20370;-92
2021/09/17 14:18:05;;;;;;;0.50;0.50;;;20.80;99.90;;;;;;6184477;23;20367;-92
2021/09/17 14:20:49;;;;;;;0.40;0.40;;;20.80;99.90;;;;;;6184981;23;20359;-87
2021/09/17 14:23:33;;;;;;;0.47;0.47;;;20.60;99.90;;;;;;6184728;23;20367;-89